Versailles, NY

1:22 PM EDT on July 01, 2015 (GMT -0400)
Shirley | | Change Station
CLOSE
Current Station
Personal Weather Station
Location: North Collins, NY
Elevation: 1056 ft
Nearby Weather Stations

Elev 1056 ft 42.58 °N, 78.92 °W | Updated 5 seconds ago

Overcast
Overcast
64.8 °F
Feels Like 64.8 °F
N
4.5
Wind Variable Wind from WSW
Gusts 4.9 mph

Today
High -- | Low -- °F
--% Chance of Precip.
Yesterday
High -- | Low -- °F
Precip. -- in
5:42 AM 8:57 PM
Full, 100% visible
Pressure 29.85 in
Visibility 10.0 miles
Clouds Mostly Cloudy 1500 ft
Overcast 4300 ft
Dew Point 61 °F
Humidity 87%
Rainfall 0.33 in
Snow Depth Not available.
UV 2.0 out of 12
Pollen 3.70 out of 12
Air Quality Not available.
Flu Activity Not available.
SPECI KDKK 011702Z AUTO 24012KT 10SM BKN015 OVC043 19/16 A2985 RMK AO2 T01890156

More Conditions Fewer Conditions

Pressure 29.85 in
Visibility 10.0 miles
Clouds Mostly Cloudy 1500 ft
Overcast 4300 ft
Dew Point 61 °F
Humidity 87%
Rainfall 0.33 in
Snow Depth Not available.
UV 2.0 out of 12
Pollen 3.70 out of 12
Air Quality Not available.
Flu Activity Not available.
SPECI KDKK 011702Z AUTO 24012KT 10SM BKN015 OVC043 19/16 A2985 RMK AO2 T01890156

More Conditions Fewer Conditions

10-Day Weather Forecast

×

Almanac

Astronomy

Jul. 01, 2015 Rise Set
Actual Time
Civil Twilight
Nautical Twilight
Astronomical Twilight
Moon
Length of Visible Light
Length of Day
Tomorrow will be .
, % of the Moon is Illuminated

Today's Extremes

State Highs State Lows

Community

WunderPhotos

Upload Photos

1,834,216 photos uploaded!

WunderBlogs® & News

Nearby

Air Quality

  Air Quality AQ Index Pollutant
Not available.

Snow Depth

Station Depth Elevation

Earthquake Activity

City Distance Mag. Time & Date
Minimum magnitude displayed is 2.5.

Coastal Water Temperatures

Place Temperature

Stations

Nearby Weather Stations

Station Location Temp. Windchill Dew Point Humidity Wind Precip. Elev Updated Type